createdAt,value
2019-01-23T00:02:00.504Z,61.11
2019-01-23T00:07:10.464Z,60.58
2019-01-23T00:12:16.112Z,61.55
2019-01-23T00:17:21.754Z,61.51
2019-01-23T00:22:27.368Z,61.11
2019-01-23T00:27:33.029Z,60.97
2019-01-23T00:32:40.500Z,60.92
2019-01-23T00:37:46.538Z,61.44
2019-01-23T00:42:52.157Z,61.09
2019-01-23T00:47:57.781Z,61.32
2019-01-23T00:53:03.490Z,60.87
2019-01-23T00:58:09.125Z,60.97
2019-01-23T01:03:14.791Z,61.31
2019-01-23T01:08:20.417Z,61.25
2019-01-23T01:13:26.045Z,61.75
2019-01-23T01:18:33.024Z,60.90
2019-01-23T01:23:38.609Z,60.88
2019-01-23T01:28:44.292Z,60.96
2019-01-23T01:33:49.907Z,60.82
2019-01-23T01:38:55.677Z,61.57
2019-01-23T01:44:01.566Z,61.98
2019-01-23T01:49:10.138Z,60.96
2019-01-23T01:54:15.802Z,61.63
2019-01-23T01:59:23.025Z,61.23
2019-01-23T02:04:28.599Z,61.77
2019-01-23T02:09:35.522Z,62.25
2019-01-23T02:14:41.372Z,62.74
2019-01-23T02:19:47.066Z,63.38
2019-01-23T02:24:52.704Z,62.57
2019-01-23T02:29:58.371Z,61.52
2019-01-23T02:35:04.569Z,63.44
2019-01-23T02:40:13.910Z,62.95
2019-01-23T02:45:23.052Z,62.37
2019-01-23T02:50:28.684Z,61.01
2019-01-23T02:55:34.556Z,61.70
2019-01-23T03:00:40.201Z,62.29
2019-01-23T03:05:45.875Z,62.48
2019-01-23T03:10:51.479Z,62.64
2019-01-23T03:15:57.191Z,62.74
2019-01-23T03:21:03.007Z,61.96
2019-01-23T03:26:10.185Z,61.67
2019-01-23T03:31:15.990Z,62.94
2019-01-23T03:36:21.712Z,62.37
2019-01-23T03:41:27.331Z,62.43
2019-01-23T03:46:32.932Z,62.57
2019-01-23T03:51:38.546Z,63.36
2019-01-23T03:56:44.966Z,65.32
2019-01-23T04:01:50.600Z,69.54
2019-01-23T04:06:56.282Z,69.75
2019-01-23T04:12:01.946Z,68.64
2019-01-23T04:17:08.039Z,68.11
2019-01-23T04:22:13.761Z,66.09
2019-01-23T04:27:19.479Z,67.61
2019-01-23T04:32:25.087Z,69.75
2019-01-23T04:37:30.993Z,68.73
2019-01-23T04:42:36.647Z,67.68
2019-01-23T04:47:42.252Z,68.39
2019-01-23T04:53:21.958Z,67.71
2019-01-23T04:58:29.131Z,66.93
2019-01-23T05:03:37.952Z,67.78
2019-01-23T05:08:46.329Z,67.36
2019-01-23T05:13:51.972Z,69.11
2019-01-23T05:18:57.584Z,68.32
2019-01-23T05:24:03.649Z,68.59
2019-01-23T05:29:09.693Z,67.91
2019-01-23T05:34:15.670Z,67.71
2019-01-23T05:39:21.307Z,67.16
2019-01-23T05:44:26.957Z,67.29
2019-01-23T05:49:32.594Z,66.64
2019-01-23T05:54:38.670Z,67.06
2019-01-23T05:59:44.828Z,66.86
2019-01-23T06:04:51.971Z,67.87
2019-01-23T06:10:04.579Z,68.72
2019-01-23T06:15:11.744Z,68.36
2019-01-23T06:20:23.378Z,68.99
2019-01-23T06:25:29.077Z,68.46
2019-01-23T06:30:36.486Z,68.02
2019-01-23T06:35:42.975Z,67.24
2019-01-23T06:40:51.678Z,67.17
2019-01-23T06:46:00.469Z,66.16
2019-01-23T06:51:08.475Z,65.46
2019-01-23T06:56:18.123Z,66.63
2019-01-23T07:01:24.735Z,66.25
2019-01-23T07:06:30.399Z,66.25
2019-01-23T07:11:36.010Z,65.44
2019-01-23T07:16:41.616Z,64.91
2019-01-23T07:21:47.285Z,66.81
2019-01-23T07:26:53.011Z,64.79
2019-01-23T07:31:58.593Z,64.52
2019-01-23T07:37:05.763Z,64.48
2019-01-23T07:42:11.722Z,64.95
2019-01-23T07:47:17.310Z,64.64
2019-01-23T07:52:22.937Z,64.73
2019-01-23T07:57:28.542Z,65.56
2019-01-23T08:02:34.376Z,66.05
2019-01-23T08:07:41.461Z,65.22
2019-01-23T08:12:47.432Z,65.78
2019-01-23T08:17:53.073Z,66.16
2019-01-23T08:22:58.880Z,65.50
2019-01-23T08:28:05.810Z,66.57
2019-01-23T08:33:11.439Z,66.26
2019-01-23T08:38:17.139Z,64.99
2019-01-23T08:43:22.797Z,65.07
2019-01-23T08:48:28.458Z,65.07
2019-01-23T08:53:34.054Z,63.27
2019-01-23T08:58:39.738Z,62.69
2019-01-23T09:03:45.335Z,62.83
2019-01-23T09:08:51.378Z,61.68
2019-01-23T09:13:56.965Z,61.26
2019-01-23T09:19:02.673Z,59.94
2019-01-23T09:24:08.288Z,58.42
2019-01-23T09:29:14.350Z,58.19
2019-01-23T09:34:49.350Z,57.88
2019-01-23T09:40:34.313Z,56.13
2019-01-23T09:45:58.356Z,56.07
2019-01-23T09:51:46.628Z,56.79
2019-01-23T09:56:52.266Z,56.27
2019-01-23T10:01:57.872Z,55.41
2019-01-23T10:07:03.499Z,55.72
2019-01-23T10:12:09.148Z,57.12
2019-01-23T10:17:14.778Z,55.55
2019-01-23T10:22:20.387Z,55.49
2019-01-23T10:27:26.311Z,56.14
2019-01-23T10:32:35.153Z,56.28
2019-01-23T10:37:40.965Z,54.38
2019-01-23T10:42:46.837Z,54.81
2019-01-23T10:47:56.184Z,55.35
2019-01-23T10:53:01.068Z,53.48
2019-01-23T10:58:06.884Z,52.46
2019-01-23T11:03:12.503Z,53.41
2019-01-23T11:08:18.210Z,53.54
2019-01-23T11:13:23.799Z,51.32
2019-01-23T11:18:30.360Z,52.03
2019-01-23T11:23:35.963Z,51.58
2019-01-23T11:28:41.569Z,52.15
2019-01-23T11:33:47.178Z,52.55
2019-01-23T11:38:52.821Z,53.79
2019-01-23T11:43:58.875Z,53.02
2019-01-23T11:49:04.645Z,52.90
2019-01-23T11:54:10.277Z,51.52
2019-01-23T11:59:15.900Z,52.15
2019-01-23T12:04:22.194Z,51.03
2019-01-23T12:09:27.772Z,50.32
2019-01-23T12:14:33.387Z,48.88
2019-01-23T12:19:39.008Z,50.19
2019-01-23T12:24:44.674Z,49.06
2019-01-23T12:29:50.797Z,49.14
2019-01-23T12:34:56.821Z,49.17
2019-01-23T12:40:02.440Z,48.89
2019-01-23T12:45:13.785Z,49.68
2019-01-23T12:50:22.517Z,49.68
2019-01-23T12:55:32.370Z,50.31
2019-01-23T13:00:38.477Z,49.16
2019-01-23T13:05:44.115Z,49.40
2019-01-23T13:10:50.892Z,49.59
2019-01-23T13:15:56.492Z,50.27
2019-01-23T13:21:02.109Z,50.01
2019-01-23T13:26:09.136Z,50.11
2019-01-23T13:31:14.736Z,50.27
2019-01-23T13:36:20.507Z,50.06
2019-01-23T13:41:26.109Z,49.30
2019-01-23T13:46:32.217Z,48.48
2019-01-23T13:51:37.797Z,47.37
2019-01-23T13:56:43.408Z,47.71
2019-01-23T14:01:48.967Z,47.57
2019-01-23T14:06:54.568Z,51.08
2019-01-23T14:12:00.586Z,51.43
2019-01-23T14:17:06.472Z,52.88
2019-01-23T14:22:12.630Z,54.13
2019-01-23T18:39:44.644Z,65.26
2019-01-23T18:45:21.678Z,65.64
2019-01-23T18:51:26.709Z,64.86
2019-01-23T18:56:34.231Z,66.03
2019-01-23T19:01:45.974Z,64.87
2019-01-23T19:06:51.937Z,64.80
2019-01-23T19:12:00.144Z,64.41
2019-01-23T19:17:08.603Z,64.03
2019-01-23T19:22:14.916Z,63.49
2019-01-23T19:27:21.569Z,62.87
2019-01-23T19:32:27.554Z,63.96
2019-01-23T19:37:34.935Z,63.19
2019-01-23T19:42:44.148Z,65.50
2019-01-23T19:47:55.002Z,63.64
2019-01-23T19:53:02.133Z,64.36
2019-01-23T19:58:12.023Z,64.24
2019-01-23T20:03:20.545Z,64.66
2019-01-23T20:08:26.556Z,63.80
2019-01-23T20:13:32.916Z,62.87
2019-01-23T20:18:51.098Z,62.56
2019-01-23T20:24:00.546Z,62.04
2019-01-23T20:29:08.864Z,61.85
2019-01-23T20:34:29.191Z,62.02
2019-01-23T20:39:36.216Z,62.33
2019-01-23T20:44:43.964Z,61.87
2019-01-23T20:49:50.475Z,62.18
2019-01-23T20:54:58.832Z,62.05
2019-01-23T21:00:05.735Z,61.79
2019-01-23T21:05:14.109Z,62.46
2019-01-23T21:10:20.802Z,61.56
2019-01-23T21:15:28.990Z,61.63
2019-01-23T21:20:41.629Z,61.61
2019-01-23T21:25:50.014Z,60.51
2019-01-23T21:30:56.224Z,61.19
2019-01-23T21:36:03.446Z,60.64
2019-01-23T21:41:11.082Z,62.46
2019-01-23T21:46:17.282Z,61.92
2019-01-23T21:51:23.056Z,62.00
2019-01-23T21:56:28.684Z,62.84
2019-01-23T22:01:34.687Z,62.32
2019-01-23T22:06:41.321Z,62.35
2019-01-23T22:11:47.229Z,62.54
2019-01-23T22:16:55.192Z,61.96
2019-01-23T22:22:03.268Z,61.95
2019-01-23T22:27:09.304Z,61.55
2019-01-23T22:32:14.935Z,61.95
2019-01-23T22:37:28.668Z,62.18
2019-01-23T22:42:35.812Z,62.31
2019-01-23T22:47:41.431Z,62.55
2019-01-23T22:52:48.504Z,63.47
2019-01-23T22:57:55.700Z,62.73
2019-01-23T23:03:04.026Z,64.09
2019-01-23T23:08:11.718Z,64.31
2019-01-23T23:13:22.335Z,63.98
2019-01-23T23:18:28.346Z,63.73
2019-01-23T23:23:35.399Z,64.20
2019-01-23T23:28:40.897Z,64.52
2019-01-23T23:33:46.462Z,64.03
2019-01-23T23:38:52.233Z,64.06
2019-01-23T23:43:58.136Z,63.92
2019-01-23T23:55:00.884Z,63.98
